KDLZ

Delaware Municipal - Jim Moore Field Airport

Delaware, Ohio, USA
METAR KDLZ 271156Z AUTO 00000KT 3SM BR CLR 20/20 A2993 RMK AO2
Observed Flight Rules
May-27 @ 11:56 UTC (9 minutes ago) Marginal Visual Flight Rules
Visibility Clouds Conditions
3 miles
  • Clear skies
  • Mist
Temperatures Readings
Current 20°C / 68°F
Dewpoint 20°C / 68°F
Humidity 100%
Altimeter 29.93" Hg
Pressure 1014 hPa
Elevation 289
METAR KDLZ 271156Z AUTO 00000KT 3SM BR CLR 20/20 A2993 RMK AO2
Observed Flight Rules
May-27 @ 11:56 UTC
(9 minutes ago)
MVFR
Clouds
  • Clear skies
Conditions
  • Mist
Temperature Dewpoint
20°C / 68°F 20°C / 68°F
Humidity Altimeter Pressure
100% 29.93" Hg 1014 hPa